Alleghany, Virginia
Current Conditions -  °F | °C
As of 11:55 AM on Thursday 30 Oct 2014 (Local Time) from KHSP Reporting Station
Overcast Overcast  
Wind Chill: 35°   Ceiling: 1500
Heat Index: 39°   Visibility: 10mi
Dew Point: 32°   Wind: 6mph
Humidity: 74%   Direction: 340°NNW
Pressure: 30.04"   Gusts: NA
Location:  37.7731°N, 80.0632°W
Report Text: KHSP 301555Z AUTO 34005KT 10SM OVC015 04/00 A3004 RMK AO2 T00411002
Loading
Personal Weather Stations






























Interactive Weather Map
Tropical Storm Tracking
New forecast layout! Learn more

10-Day Weather Forecast

Advertisements
Track Severe Weather on mobile